Time;durP1;ratioP1;P1;durP2;ratioP2;P2;SDS_P1;SDS_P2;PMS_P1;PMS_P2;Temp;Humidity;BMP_temperature;BMP_pressure;BME280_temperature;BME280_humidity;BME280_pressure;Samples;Min_cycle;Max_cycle;Signal;HPM_P1;HPM_P2
2022/09/18 16:34:03;;;;;;;9.23;1.90;;;15.10;99.90;;;;;;4963743;23;20052;-89
2022/09/18 16:36:37;;;;;;;10.07;1.90;;;21.20;99.90;;;;;;4933161;29;20038;-88
2022/09/18 16:39:15;;;;;;;4.75;1.50;;;17.90;99.90;;;;;;4933946;29;20031;-87
2022/09/18 16:41:42;;;;;;;7.72;1.90;;;18.00;99.90;;;;;;4927187;29;20119;-85
2022/09/18 16:44:10;;;;;;;3.70;1.58;;;18.80;99.90;;;;;;4925420;29;20082;-85
2022/09/18 16:46:54;;;;;;;8.93;1.70;;;18.70;99.90;;;;;;4927780;29;20086;-85
2022/09/18 16:49:27;;;;;;;8.70;1.60;;;19.70;99.90;;;;;;4930158;29;20019;-88
2022/09/18 16:51:56;;;;;;;6.03;1.67;;;;;;;;;;4927853;29;20039;-88
2022/09/18 16:54:23;;;;;;;5.40;1.60;;;19.80;99.90;;;;;;4933762;29;20024;-89
2022/09/18 16:56:55;;;;;;;7.65;1.90;;;19.10;99.90;;;;;;4932793;29;20032;-88
2022/09/18 16:59:23;;;;;;;9.00;1.77;;;19.10;99.90;;;;;;4933830;29;20024;-88
2022/09/18 17:01:49;;;;;;;12.18;2.53;;;;;;;;;;4926701;29;20503;-89
2022/09/18 17:04:15;;;;;;;6.95;1.70;;;;;;;;;;4928881;29;20035;-87
2022/09/18 17:06:42;;;;;;;8.27;1.80;;;;;;;;;;4928933;29;20048;-87
2022/09/18 17:09:08;;;;;;;6.03;1.70;;;;;;;;;;4932649;29;20031;-87
2022/09/18 17:11:34;;;;;;;7.32;1.55;;;19.50;99.90;;;;;;4931852;29;20099;-88
2022/09/18 17:14:00;;;;;;;12.77;1.60;;;;;;;;;;4933407;29;20031;-88
2022/09/18 17:16:27;;;;;;;6.15;1.50;;;;;;;;;;4933790;29;20035;-89
2022/09/18 17:18:54;;;;;;;5.53;1.65;;;18.80;99.90;;;;;;4922255;29;20032;-88
2022/09/18 17:21:20;;;;;;;8.68;2.00;;;;;;;;;;4925150;29;20019;-88
2022/09/18 17:23:46;;;;;;;4.88;1.42;;;;;;;;;;4932532;29;20032;-90
2022/09/18 17:26:13;;;;;;;6.35;2.20;;;19.30;99.90;;;;;;4932393;29;20435;-89
2022/09/18 17:28:39;;;;;;;5.82;1.60;;;19.30;99.90;;;;;;4932552;29;20032;-89
2022/09/18 17:31:09;;;;;;;5.28;2.78;;;19.30;99.90;;;;;;4934634;29;20036;-90
2022/09/18 17:33:39;;;;;;;10.90;1.80;;;18.30;99.90;;;;;;4933356;29;20492;-92
2022/09/18 17:36:07;;;;;;;4.03;1.70;;;18.30;99.90;;;;;;4932738;29;20414;-88
2022/09/18 17:38:37;;;;;;;;;;;18.60;99.90;;;;;;4932248;29;20110;-89
2022/09/18 17:41:05;;;;;;;5.70;1.75;;;17.80;99.90;;;;;;4933149;29;20227;-91
2022/09/18 17:43:31;;;;;;;8.85;1.73;;;;;;;;;;4931503;29;20059;-88
2022/09/18 17:46:00;;;;;;;6.63;1.60;;;17.20;99.90;;;;;;4931682;29;20070;-87
2022/09/18 17:48:26;;;;;;;4.57;1.70;;;;;;;;;;4932410;29;20024;-92
2022/09/18 17:51:10;;;;;;;9.95;1.95;;;17.00;99.90;;;;;;4931068;29;20055;-89
2022/09/18 17:53:40;;;;;;;7.05;1.60;;;13.20;99.90;;;;;;4932446;29;20032;-88
2022/09/18 17:56:15;;;;;;;4.10;1.48;;;16.20;99.90;;;;;;4932638;29;20039;-91
2022/09/18 17:58:43;;;;;;;6.65;1.95;;;16.30;99.90;;;;;;4932328;29;20055;-89
2022/09/18 18:01:17;;;;;;;5.05;1.70;;;16.10;99.90;;;;;;4931822;29;20055;-88
2022/09/18 18:03:45;;;;;;;9.25;2.90;;;15.80;99.90;;;;;;4932312;29;20127;-90
2022/09/18 18:06:11;;;;;;;8.60;1.52;;;15.70;99.90;;;;;;4933376;29;20476;-89
2022/09/18 18:08:37;;;;;;;7.68;4.43;;;15.50;99.90;;;;;;4932259;29;20115;-88
2022/09/18 18:11:08;;;;;;;7.38;3.08;;;15.50;99.90;;;;;;4932847;29;20040;-88
2022/09/18 18:13:36;;;;;;;5.53;2.75;;;15.40;99.90;;;;;;4947374;29;20442;-88
2022/09/18 18:16:13;;;;;;;8.25;2.53;;;15.30;99.90;;;;;;4948039;29;20018;-89
2022/09/18 18:18:40;;;;;;;15.90;3.95;;;15.20;99.90;;;;;;4946690;29;20034;-88
2022/09/18 18:21:06;;;;;;;11.77;3.45;;;15.10;99.90;;;;;;4936604;29;20031;-89
2022/09/18 18:23:33;;;;;;;10.25;3.90;;;15.10;99.90;;;;;;4932129;29;20066;-89
2022/09/18 18:26:00;;;;;;;7.85;2.70;;;14.90;99.90;;;;;;4931550;29;20059;-90
2022/09/18 18:28:29;;;;;;;7.47;2.20;;;14.80;99.90;;;;;;4931107;29;20024;-90
2022/09/18 18:31:05;;;;;;;12.35;2.33;;;14.80;99.90;;;;;;4930472;29;20036;-88
2022/09/18 18:33:32;;;;;;;9.98;2.33;;;14.80;99.90;;;;;;4931946;29;20034;-88
2022/09/18 18:36:13;;;;;;;9.40;2.33;;;14.60;99.90;;;;;;4932191;29;20035;-88
2022/09/18 18:38:40;;;;;;;14.25;2.60;;;14.50;99.90;;;;;;4930510;29;20028;-89
2022/09/18 18:41:06;;;;;;;8.57;2.30;;;;;;;;;;4932622;29;20721;-89
2022/09/18 18:43:33;;;;;;;11.65;3.03;;;14.40;99.90;;;;;;4931933;29;20086;-88
2022/09/18 18:46:00;;;;;;;9.48;2.17;;;;;;;;;;4932184;29;20035;-89
2022/09/18 18:48:31;;;;;;;6.80;2.33;;;14.20;99.90;;;;;;4929723;29;20388;-86
2022/09/18 18:50:58;;;;;;;13.63;2.42;;;;;;;;;;4930598;29;20130;-87
2022/09/18 18:53:25;;;;;;;15.23;2.60;;;14.10;99.90;;;;;;4931574;29;20071;-90
2022/09/18 18:55:51;;;;;;;8.55;2.10;;;;;;;;;;4922081;29;20492;-87
2022/09/18 18:58:17;;;;;;;7.68;2.47;;;14.00;99.90;;;;;;4930351;29;20038;-86
2022/09/18 19:00:44;;;;;;;4.57;2.00;;;;;;;;;;4933117;29;20086;-88
2022/09/18 19:03:10;;;;;;;10.68;2.45;;;;;;;;;;4932794;29;20027;-90
2022/09/18 19:05:36;;;;;;;6.35;2.05;;;;;;;;;;4931211;29;20031;-89
2022/09/18 19:08:02;;;;;;;4.97;1.98;;;13.90;99.90;;;;;;4933003;29;20031;-89
2022/09/18 19:10:28;;;;;;;7.55;2.28;;;;;;;;;;4931391;29;20040;-89
2022/09/18 19:12:59;;;;;;;7.22;2.50;;;13.60;99.90;;;;;;4932074;29;20028;-90
2022/09/18 19:15:27;;;;;;;11.32;2.17;;;13.60;99.90;;;;;;4933792;29;20028;-90
2022/09/18 19:17:56;;;;;;;9.52;2.50;;;;;;;;;;4932163;29;20055;-88
2022/09/18 19:20:25;;;;;;;7.65;3.00;;;;;;;;;;4930664;29;20036;-88
2022/09/18 19:22:55;;;;;;;10.52;2.60;;;13.50;99.90;;;;;;4931102;29;20027;-88
2022/09/18 19:25:23;;;;;;;4.03;2.30;;;13.30;99.90;;;;;;4932008;29;20106;-87
2022/09/18 19:27:49;;;;;;;14.45;2.83;;;;;;;;;;4931668;29;20024;-89
2022/09/18 19:30:15;;;;;;;10.18;2.47;;;12.60;99.90;;;;;;4932571;29;20066;-86
2022/09/18 19:32:41;;;;;;;11.20;2.38;;;;;;;;;;4931719;29;20062;-87
2022/09/18 19:35:07;;;;;;;11.35;2.38;;;13.60;99.90;;;;;;4932011;29;20659;-88
2022/09/18 19:37:32;;;;;;;4.28;2.10;;;13.20;99.90;;;;;;4931564;29;20028;-88
2022/09/18 19:39:58;;;;;;;8.77;2.10;;;;;;;;;;4931933;29;20514;-87
2022/09/18 19:42:26;;;;;;;9.38;2.40;;;13.20;99.90;;;;;;4931536;29;20023;-88
2022/09/18 19:44:59;;;;;;;7.18;2.30;;;13.10;99.90;;;;;;4931806;29;20032;-87
2022/09/18 19:47:36;;;;;;;7.38;2.50;;;13.10;99.90;;;;;;4931579;29;20028;-87
2022/09/18 19:50:04;;;;;;;12.67;2.97;;;13.10;99.90;;;;;;4930034;29;20043;-87
2022/09/18 19:52:31;;;;;;;19.23;2.70;;;13.00;99.90;;;;;;4931545;29;20272;-88
2022/09/18 19:54:58;;;;;;;10.10;3.00;;;13.10;99.90;;;;;;4931811;29;20115;-88
2022/09/18 19:57:25;;;;;;;12.00;2.30;;;12.90;99.90;;;;;;4930070;29;20044;-88
2022/09/18 19:59:55;;;;;;;9.30;2.58;;;12.90;99.90;;;;;;4930505;29;20032;-88
2022/09/18 20:02:22;;;;;;;8.98;2.28;;;13.10;99.90;;;;;;4930093;29;20225;-88
2022/09/18 20:04:48;;;;;;;13.93;2.70;;;12.90;99.90;;;;;;4931427;29;20042;-87
2022/09/18 20:07:14;;;;;;;18.25;2.40;;;;;;;;;;4932536;29;20024;-87
2022/09/18 20:09:40;;;;;;;9.27;2.28;;;;;;;;;;4929927;29;20054;-87
2022/09/18 20:12:07;;;;;;;14.55;2.50;;;13.10;99.90;;;;;;4931564;29;20056;-87
2022/09/18 20:14:33;;;;;;;12.23;2.92;;;13.10;99.90;;;;;;4932607;29;20043;-87
2022/09/18 20:16:59;;;;;;;11.98;2.60;;;;;;;;;;4934919;29;20023;-88
2022/09/18 20:19:25;;;;;;;6.97;2.25;;;12.90;99.90;;;;;;4933396;29;20050;-87
2022/09/18 20:21:51;;;;;;;6.53;2.40;;;;;;;;;;4934718;29;20379;-87
2022/09/18 20:24:18;;;;;;;10.38;2.42;;;12.70;99.90;;;;;;4933499;29;20082;-87
2022/09/18 20:26:44;;;;;;;9.18;2.95;;;;;;;;;;4934487;29;20031;-88
2022/09/18 20:29:15;;;;;;;8.38;2.50;;;;;;;;;;4934617;29;20480;-87
2022/09/18 20:31:41;;;;;;;9.35;2.50;;;;;;;;;;4934749;29;20537;-86
2022/09/18 20:34:06;;;;;;;8.25;2.50;;;11.30;99.90;;;;;;4933351;29;20341;-87
2022/09/18 20:36:32;;;;;;;16.67;4.18;;;;;;;;;;4934328;29;20391;-86
2022/09/18 20:39:00;;;;;;;7.40;2.40;;;12.50;99.90;;;;;;4932915;29;20043;-86
2022/09/18 20:41:28;;;;;;;8.27;3.10;;;12.40;99.90;;;;;;4934043;29;20023;-86
2022/09/18 20:43:54;;;;;;;15.32;4.15;;;;;;;;;;4934112;29;20385;-87
2022/09/18 20:46:21;;;;;;;11.68;3.35;;;;;;;;;;4933932;29;20395;-86
2022/09/18 20:48:51;;;;;;;15.13;3.10;;;11.90;99.90;;;;;;4934756;29;20050;-86
2022/09/18 20:51:18;;;;;;;16.40;2.70;;;12.00;99.90;;;;;;4936235;29;20070;-86
2022/09/18 20:53:45;;;;;;;7.78;2.92;;;;;;;;;;4941912;29;20038;-86
2022/09/18 20:56:13;;;;;;;5.82;2.95;;;11.90;99.90;;;;;;4942345;29;20023;-85
2022/09/18 20:58:41;;;;;;;11.30;2.83;;;11.80;99.90;;;;;;4941393;29;20036;-86
2022/09/18 21:01:16;;;;;;;9.55;2.90;;;11.90;99.90;;;;;;4935305;29;20736;-86
2022/09/18 21:03:44;;;;;;;10.52;2.95;;;11.80;99.90;;;;;;4934538;29;20074;-87
2022/09/18 21:06:14;;;;;;;8.13;2.90;;;11.80;99.90;;;;;;4932440;29;20023;-86
2022/09/18 21:08:43;;;;;;;6.88;2.65;;;11.70;99.90;;;;;;4933502;29;20444;-87
2022/09/18 21:11:14;;;;;;;13.32;3.05;;;11.60;99.90;;;;;;4932178;29;20553;-86
2022/09/18 21:13:48;;;;;;;7.35;2.63;;;11.70;99.90;;;;;;4933132;29;20031;-87
2022/09/18 21:16:14;;;;;;;10.13;2.75;;;11.60;99.90;;;;;;4934345;29;20132;-87
2022/09/18 21:18:41;;;;;;;6.70;2.78;;;11.70;99.90;;;;;;4933027;29;20028;-87
2022/09/18 21:21:09;;;;;;;10.90;3.63;;;11.80;99.90;;;;;;4933395;29;20346;-85
2022/09/18 21:26:23;;;;;;;13.32;2.70;;;11.60;99.90;;;;;;4933086;29;20146;-86
2022/09/18 21:28:53;;;;;;;11.20;3.30;;;11.60;99.90;;;;;;4932984;29;20472;-87
2022/09/18 21:31:19;;;;;;;6.03;2.90;;;8.90;99.90;;;;;;4931511;29;20056;-86
2022/09/18 21:33:45;;;;;;;8.60;3.55;;;;;;;;;;4932482;29;20554;-87
2022/09/18 21:36:11;;;;;;;8.18;3.17;;;;;;;;;;4931766;29;20075;-86
2022/09/18 21:38:38;;;;;;;10.50;3.03;;;11.50;99.90;;;;;;4931510;29;20476;-87
2022/09/18 21:41:08;;;;;;;8.20;2.97;;;11.70;99.90;;;;;;4933102;29;20066;-87
2022/09/18 21:43:36;;;;;;;12.10;2.75;;;;;;;;;;4931927;29;20111;-86
2022/09/18 21:46:04;;;;;;;13.02;3.53;;;11.60;99.90;;;;;;4931757;29;20028;-87
2022/09/18 21:48:33;;;;;;;12.13;3.25;;;11.50;99.90;;;;;;4933097;29;20396;-86
2022/09/18 21:51:08;;;;;;;7.88;3.30;;;11.50;99.90;;;;;;4931396;29;20050;-86
2022/09/18 21:53:35;;;;;;;6.30;2.67;;;11.50;99.90;;;;;;4932649;29;20027;-87
2022/09/18 21:56:05;;;;;;;12.07;3.60;;;11.50;99.90;;;;;;4931366;29;20622;-87
2022/09/18 21:58:31;;;;;;;14.25;3.35;;;11.50;99.90;;;;;;4931332;29;20447;-87
2022/09/18 22:00:57;;;;;;;10.95;3.38;;;;;;;;;;4932796;29;20102;-87
2022/09/18 22:03:24;;;;;;;14.85;3.85;;;11.30;99.90;;;;;;4932579;29;20114;-86
2022/09/18 22:05:51;;;;;;;12.57;3.65;;;;;;;;;;4931382;29;20174;-86
2022/09/18 22:08:18;;;;;;;10.27;3.58;;;11.20;99.90;;;;;;4932615;29;20471;-86
2022/09/18 22:10:44;;;;;;;9.57;3.70;;;;;;;;;;4932337;29;20035;-88
2022/09/18 22:13:10;;;;;;;12.05;3.65;;;11.20;99.90;;;;;;4931607;29;20024;-87
2022/09/18 22:15:36;;;;;;;13.30;3.95;;;;;;;;;;4931263;29;20035;-87
2022/09/18 22:18:02;;;;;;;11.75;3.33;;;;;;;;;;4931268;29;20114;-86
2022/09/18 22:20:28;;;;;;;8.60;3.45;;;;;;;;;;4932264;29;20035;-87
2022/09/18 22:22:54;;;;;;;8.90;3.30;;;;;;;;;;4932172;29;20028;-87
2022/09/18 22:25:20;;;;;;;7.00;3.25;;;;;;;;;;4930829;29;20035;-88
2022/09/18 22:27:47;;;;;;;14.07;3.58;;;;;;;;;;4932977;29;20388;-87
2022/09/18 22:30:13;;;;;;;7.55;3.47;;;;;;;;;;4933089;29;20038;-87
2022/09/18 22:32:40;;;;;;;8.82;3.80;;;11.10;99.90;;;;;;4931742;29;20070;-88
2022/09/18 22:35:06;;;;;;;16.45;3.20;;;11.10;99.90;;;;;;4930914;29;20031;-88
2022/09/18 22:37:32;;;;;;;5.30;3.00;;;;;;;;;;4931326;29;20102;-88
2022/09/18 22:39:58;;;;;;;16.77;3.42;;;11.20;99.90;;;;;;4930639;29;20027;-88
2022/09/18 22:42:23;;;;;;;10.40;3.10;;;11.10;99.90;;;;;;4931878;29;20039;-88
2022/09/18 22:44:49;;;;;;;14.48;3.67;;;;;;;;;;4931979;29;20141;-87
2022/09/18 22:47:15;;;;;;;11.93;4.32;;;;;;;;;;4931400;29;20079;-88
2022/09/18 22:49:41;;;;;;;11.43;4.00;;;11.00;99.90;;;;;;4931648;29;20479;-87
2022/09/18 22:52:07;;;;;;;9.85;3.75;;;10.80;99.90;;;;;;4931669;29;20043;-87
2022/09/18 22:54:32;;;;;;;13.27;3.97;;;10.90;99.90;;;;;;4931606;29;20106;-87
2022/09/18 22:56:58;;;;;;;11.65;3.38;;;10.90;99.90;;;;;;4931810;29;20039;-88
2022/09/18 22:59:25;;;;;;;20.20;4.47;;;11.00;99.90;;;;;;4930456;29;20472;-87
2022/09/18 23:01:55;;;;;;;11.35;4.20;;;10.90;99.90;;;;;;4930752;29;20034;-88
2022/09/18 23:04:22;;;;;;;9.77;3.80;;;10.70;99.90;;;;;;4930372;29;20047;-88
2022/09/18 23:06:49;;;;;;;10.35;3.55;;;;;;;;;;4930625;29;20455;-87
2022/09/18 23:09:18;;;;;;;11.23;3.70;;;10.70;99.90;;;;;;4931176;29;20080;-88
2022/09/18 23:11:49;;;;;;;8.82;4.28;;;10.70;99.90;;;;;;4931344;29;20040;-87
2022/09/18 23:14:19;;;;;;;14.00;3.90;;;10.80;99.90;;;;;;4932659;29;20027;-87
2022/09/18 23:16:45;;;;;;;10.23;4.43;;;11.00;99.90;;;;;;4931445;29;20115;-87
2022/09/18 23:19:18;;;;;;;8.45;3.95;;;10.60;99.90;;;;;;4930453;29;20082;-88
2022/09/18 23:21:44;;;;;;;11.77;4.20;;;;;;;;;;4930938;29;20023;-87
2022/09/18 23:24:11;;;;;;;9.05;3.53;;;;;;;;;;4930658;29;20063;-88
2022/09/18 23:26:42;;;;;;;9.45;3.80;;;10.60;99.90;;;;;;4930243;29;20713;-88
2022/09/18 23:29:11;;;;;;;10.23;4.18;;;10.60;99.90;;;;;;4932267;29;20502;-87
2022/09/18 23:31:42;;;;;;;8.77;3.58;;;10.60;99.90;;;;;;4936671;29;20043;-86
2022/09/18 23:34:12;;;;;;;5.97;3.85;;;10.50;99.90;;;;;;4936914;29;20032;-87
2022/09/18 23:36:44;;;;;;;15.05;4.25;;;10.60;99.90;;;;;;4937996;29;20050;-87
2022/09/18 23:39:22;;;;;;;10.68;4.10;;;10.60;99.90;;;;;;4932625;29;20020;-87
2022/09/18 23:41:49;;;;;;;6.53;3.63;;;10.60;99.90;;;;;;4930168;29;20110;-88
2022/09/18 23:44:16;;;;;;;9.23;3.45;;;10.50;99.90;;;;;;4930781;29;20036;-87
2022/09/18 23:46:43;;;;;;;11.23;3.97;;;;;;;;;;4930878;29;20020;-87
2022/09/18 23:49:11;;;;;;;11.57;4.38;;;10.50;99.90;;;;;;4932298;29;20039;-87
2022/09/18 23:51:46;;;;;;;9.30;3.95;;;8.10;99.90;;;;;;4934578;29;20708;-87
2022/09/18 23:54:18;;;;;;;11.35;3.60;;;10.50;99.90;;;;;;4934209;29;20399;-86
2022/09/18 23:56:45;;;;;;;11.90;3.90;;;;;;;;;;4935515;29;20107;-87
2022/09/18 23:59:12;;;;;;;12.07;4.40;;;10.40;99.90;;;;;;4934657;29;20046;-87
